Schurz, Nevada
Current Conditions -  °F | °C
As of 8:56 AM on Saturday 25 Oct 2014 (Local Time) from KNFL Reporting Station
Broken Clouds Broken Clouds  
Wind Chill: 67°   Ceiling: 25000
Heat Index: 67°   Visibility: 10mi
Dew Point: 28°   Wind: 16mph
Humidity: 23%   Direction: 150°SSE
Pressure: 29.91"   Gusts: 22mph
Location:  38.95°N, 118.81°W
Report Text: KNFL 251556Z 15014G19KT 10SM FEW100 SCT180 BKN250 19/M02 A2991 RMK AO2 SLP101 ACSL DSNT SW NW-N T01941022
Loading
Personal Weather Stations






























Interactive Weather Map
Tropical Storm Tracking
New forecast layout! Learn more

10-Day Weather Forecast

Advertisements
Track Severe Weather on mobile